Time;durP1;ratioP1;P1;durP2;ratioP2;P2;SDS_P1;SDS_P2;PMS_P1;PMS_P2;Temp;Humidity;BMP_temperature;BMP_pressure;BME280_temperature;BME280_humidity;BME280_pressure;Samples;Min_cycle;Max_cycle;Signal;HPM_P1;HPM_P2
2021/08/08 00:00:15;;;;;;;3.90;2.15;;;;;;;35.10;19.26;94431.25;5095004;28;20496;-57
2021/08/08 00:02:43;;;;;;;4.10;1.50;;;;;;;35.18;19.29;94435.25;5095679;28;20047;-57
2021/08/08 00:05:12;;;;;;;2.90;1.73;;;;;;;34.92;19.49;94432.66;5095627;28;20047;-59
2021/08/08 00:07:40;;;;;;;4.05;2.03;;;;;;;34.98;19.54;94437.53;5095819;28;20045;-56
2021/08/08 00:10:09;;;;;;;2.42;1.80;;;;;;;35.22;19.37;94439.38;5095138;28;20048;-57
2021/08/08 00:12:37;;;;;;;3.03;1.85;;;;;;;34.68;19.80;94431.53;5094439;28;20122;-54
2021/08/08 00:15:06;;;;;;;2.47;1.98;;;;;;;35.16;19.64;94438.44;5094964;28;20040;-57
2021/08/08 00:17:33;;;;;;;2.28;1.50;;;;;;;34.97;19.40;94436.00;5095236;28;20044;-58
2021/08/08 00:20:00;;;;;;;3.78;1.95;;;;;;;34.64;20.05;94439.06;5095026;28;20055;-57
2021/08/08 00:22:27;;;;;;;3.67;1.65;;;;;;;34.70;19.98;94445.44;5087007;28;20048;-57
2021/08/08 00:24:54;;;;;;;1.88;1.70;;;;;;;34.90;19.31;94437.78;5075090;28;20138;-54
2021/08/08 00:27:21;;;;;;;2.95;1.80;;;;;;;35.05;19.27;94437.28;5074991;28;20040;-56
2021/08/08 00:29:48;;;;;;;2.13;1.50;;;;;;;34.98;19.42;94441.00;5075076;28;20048;-55
2021/08/08 00:32:16;;;;;;;2.63;1.63;;;;;;;34.98;19.29;94442.97;5074008;28;20052;-58
2021/08/08 00:34:44;;;;;;;2.05;1.85;;;;;;;34.81;19.23;94439.63;5074004;28;20067;-54
2021/08/08 00:37:11;;;;;;;2.40;1.70;;;;;;;34.95;19.33;94435.69;5073727;28;20052;-54
2021/08/08 00:39:38;;;;;;;2.17;1.80;;;;;;;34.51;19.63;94449.19;5074877;28;20044;-58
2021/08/08 00:42:05;;;;;;;2.72;1.80;;;;;;;34.48;19.67;94444.63;5077391;28;20055;-57
2021/08/08 00:44:33;;;;;;;3.22;1.60;;;;;;;34.74;19.76;94446.06;5088335;28;20040;-59
2021/08/08 00:47:00;;;;;;;2.80;1.70;;;;;;;34.69;19.62;94445.88;5073875;28;20484;-57
2021/08/08 00:49:29;;;;;;;2.10;1.67;;;;;;;34.37;19.95;94449.66;5092389;28;20048;-53
2021/08/08 00:51:57;;;;;;;2.90;1.63;;;;;;;34.38;19.70;94456.59;5093580;28;20059;-57
2021/08/08 00:54:29;;;;;;;1.98;1.70;;;;;;;34.51;19.81;94455.34;5091895;28;20048;-57
2021/08/08 00:56:57;;;;;;;2.08;1.60;;;;;;;34.58;19.74;94460.53;5090624;28;20044;-55
2021/08/08 00:59:24;;;;;;;2.80;1.67;;;;;;;33.99;20.06;94466.69;5084268;28;20055;-57
2021/08/08 01:01:54;;;;;;;1.80;1.50;;;;;;;34.45;19.49;94461.78;5074666;28;20051;-54
2021/08/08 01:04:48;;;;;;;2.83;1.50;;;;;;;34.47;19.48;94459.38;5093608;28;20051;-56
2021/08/08 01:07:22;;;;;;;2.33;1.60;;;;;;;34.73;19.18;94473.66;5083663;28;20047;-53
2021/08/08 01:09:54;;;;;;;1.95;1.40;;;;;;;34.55;19.54;94471.53;5076505;28;20048;-55
2021/08/08 01:12:22;;;;;;;2.30;1.63;;;;;;;34.34;19.89;94467.53;5093385;28;20473;-54
2021/08/08 01:14:52;;;;;;;2.30;1.50;;;;;;;34.24;19.96;94472.09;5093707;28;20047;-55
2021/08/08 01:17:21;;;;;;;2.17;1.70;;;;;;;34.08;20.07;94472.19;5077050;28;20056;-55
2021/08/08 01:20:07;;;;;;;2.67;1.65;;;;;;;34.24;19.71;94476.75;5093378;28;20044;-54
2021/08/08 01:22:53;;;;;;;2.17;1.48;;;;;;;34.09;19.70;94481.84;5080882;28;20052;-55
2021/08/08 01:25:24;;;;;;;2.85;1.50;;;;;;;34.23;19.42;94473.28;5093589;28;20458;-58
2021/08/08 01:27:54;;;;;;;1.80;1.35;;;;;;;33.92;19.98;94480.47;5077410;28;20059;-59
2021/08/08 01:30:24;;;;;;;;;;;;;;;33.73;20.14;94463.94;5085724;28;20047;-58
2021/08/08 01:32:52;;;;;;;2.15;1.40;;;;;;;33.83;20.29;94477.59;5072810;28;19936;-55
2021/08/08 01:35:21;;;;;;;3.42;1.50;;;;;;;33.63;20.64;94475.88;5056585;28;20067;-53
2021/08/08 01:37:49;;;;;;;1.80;1.60;;;;;;;33.40;20.99;94474.19;5073672;28;20056;-58
2021/08/08 01:40:23;;;;;;;2.05;1.50;;;;;;;33.89;20.22;94473.97;5076085;28;20051;-55
2021/08/08 01:42:54;;;;;;;2.92;1.70;;;;;;;33.38;20.74;94467.69;5060146;28;20052;-55
2021/08/08 01:45:22;;;;;;;5.00;1.70;;;;;;;33.58;20.38;94473.69;5077351;28;20061;-53
2021/08/08 01:47:52;;;;;;;3.25;1.67;;;;;;;33.33;20.68;94473.66;5060551;28;20056;-57
2021/08/08 01:50:23;;;;;;;2.90;1.80;;;;;;;33.60;20.46;94475.97;5077342;28;20041;-54
2021/08/08 01:52:51;;;;;;;4.32;1.95;;;;;;;33.27;20.95;94472.59;5080235;28;20454;-53
2021/08/08 01:55:24;;;;;;;3.72;2.03;;;;;;;33.45;20.72;94474.84;5081170;28;20048;-53
2021/08/08 01:57:57;;;;;;;2.97;1.60;;;;;;;33.18;21.33;94477.91;5079759;28;20052;-55
2021/08/08 02:00:27;;;;;;;2.03;1.67;;;;;;;33.28;20.96;94469.47;5082031;28;20048;-55
2021/08/08 02:02:58;;;;;;;3.35;1.60;;;;;;;33.31;21.01;94470.56;5083784;28;20048;-52
2021/08/08 02:05:33;;;;;;;2.70;1.63;;;;;;;32.95;21.25;94471.53;5080952;28;20106;-55
2021/08/08 02:08:02;;;;;;;2.05;1.67;;;;;;;33.32;20.54;94469.41;5076781;28;20370;-54
2021/08/08 02:10:36;;;;;;;1.75;1.35;;;;;;;33.40;20.88;94478.84;5080748;28;20521;-58
2021/08/08 02:13:04;;;;;;;3.15;1.83;;;;;;;33.36;20.91;94468.13;5076564;28;20366;-55
2021/08/08 02:15:31;;;;;;;1.98;1.50;;;;;;;33.30;21.05;94479.88;5077833;28;20063;-54
2021/08/08 02:18:03;;;;;;;2.75;1.60;;;;;;;33.08;21.43;94480.47;5075800;28;20052;-55
2021/08/08 02:20:34;;;;;;;3.83;1.60;;;;;;;33.33;20.66;94479.06;5078283;28;20363;-55
2021/08/08 02:23:04;;;;;;;5.65;1.52;;;;;;;33.02;21.02;94479.44;5096322;28;20052;-55
2021/08/08 02:25:36;;;;;;;2.20;1.58;;;;;;;32.74;21.83;94480.16;5096734;28;20044;-55
2021/08/08 02:28:11;;;;;;;2.28;1.55;;;;;;;33.26;21.19;94484.63;5080675;28;20078;-55
2021/08/08 02:30:42;;;;;;;1.97;1.50;;;;;;;32.86;21.75;94482.22;5096400;28;20051;-57
2021/08/08 02:33:10;;;;;;;2.25;1.52;;;;;;;32.68;21.81;94484.59;5096657;28;20588;-56
2021/08/08 02:35:40;;;;;;;2.63;1.67;;;;;;;32.78;21.69;94483.53;5096791;28;20044;-58
2021/08/08 02:38:08;;;;;;;3.35;1.70;;;;;;;33.13;21.55;94481.13;5096140;28;20047;-57
2021/08/08 02:40:35;;;;;;;3.88;1.70;;;;;;;32.89;21.69;94475.94;5096241;28;20443;-58
2021/08/08 02:43:05;;;;;;;3.17;1.65;;;;;;;33.02;21.32;94487.56;5096287;28;20048;-56
2021/08/08 02:45:32;;;;;;;3.53;1.60;;;;;;;32.77;21.78;94482.78;5096446;28;20056;-55
2021/08/08 02:48:04;;;;;;;6.72;2.00;;;;;;;32.57;21.92;94484.09;5096411;28;20057;-59
2021/08/08 02:50:31;;;;;;;4.07;1.73;;;;;;;33.01;21.34;94488.75;5095731;28;20622;-55
2021/08/08 02:52:58;;;;;;;2.95;1.83;;;;;;;32.44;21.93;94492.13;5089659;28;20044;-57
2021/08/08 02:55:26;;;;;;;3.38;1.83;;;;;;;32.53;22.08;94494.22;5075957;28;20040;-54
2021/08/08 02:57:58;;;;;;;2.90;2.10;;;;;;;32.92;21.61;94494.03;5075856;28;20055;-56
2021/08/08 03:00:25;;;;;;;2.65;1.70;;;;;;;32.72;21.54;94488.72;5075446;28;20048;-55
2021/08/08 03:02:52;;;;;;;2.40;1.65;;;;;;;32.89;21.11;94494.91;5081289;28;20052;-58
2021/08/08 03:05:20;;;;;;;1.92;1.60;;;;;;;32.76;21.59;94507.56;5096947;28;20055;-52
2021/08/08 03:07:49;;;;;;;1.98;1.70;;;;;;;32.91;21.40;94511.47;5095877;28;20344;-54
2021/08/08 03:10:17;;;;;;;2.55;1.50;;;;;;;33.06;21.06;94515.34;5084004;28;20063;-54
2021/08/08 03:12:44;;;;;;;2.47;1.52;;;;;;;33.33;20.63;94517.75;5078677;28;20051;-55
2021/08/08 03:15:11;;;;;;;2.00;1.70;;;;;;;33.28;20.94;94525.59;5096304;28;20040;-53
2021/08/08 03:17:40;;;;;;;1.52;1.40;;;;;;;33.19;21.11;94517.31;5095825;28;20075;-58
2021/08/08 03:20:08;;;;;;;2.08;1.55;;;;;;;32.88;21.09;94520.44;5086666;28;20052;-57
2021/08/08 03:22:36;;;;;;;2.00;1.60;;;;;;;33.01;21.23;94523.97;5091779;28;20044;-56
2021/08/08 03:25:04;;;;;;;1.98;1.60;;;;;;;32.96;21.09;94527.19;5075284;28;20056;-57
2021/08/08 03:27:32;;;;;;;2.78;1.50;;;;;;;32.77;21.17;94526.09;5074696;28;20051;-58
2021/08/08 03:29:59;;;;;;;2.95;1.50;;;;;;;33.04;21.18;94516.94;5075036;28;20048;-59
2021/08/08 03:32:27;;;;;;;2.60;1.50;;;;;;;32.92;21.08;94521.13;5074907;28;20422;-59
2021/08/08 03:34:54;;;;;;;3.55;1.80;;;;;;;32.75;21.87;94522.28;5074682;28;20051;-55
2021/08/08 03:37:22;;;;;;;2.00;1.55;;;;;;;32.98;21.14;94514.00;5075014;28;20455;-55
2021/08/08 03:39:49;;;;;;;2.47;1.58;;;;;;;33.38;20.14;94519.91;5075887;28;20474;-54
2021/08/08 03:42:16;;;;;;;3.88;1.77;;;;;;;32.98;21.28;94524.06;5075067;28;20053;-58
2021/08/08 03:44:43;;;;;;;4.43;2.15;;;;;;;32.57;21.75;94524.69;5074287;28;20048;-58
2021/08/08 03:47:10;;;;;;;3.05;1.80;;;;;;;32.62;22.06;94524.94;5058377;28;20044;-56
2021/08/08 03:49:37;;;;;;;2.28;1.80;;;;;;;33.15;20.58;94520.13;5073899;28;20055;-58
2021/08/08 03:52:05;;;;;;;2.67;1.65;;;;;;;33.10;20.50;94521.41;5090731;28;20052;-56
2021/08/08 03:54:32;;;;;;;2.58;1.70;;;;;;;32.47;21.71;94521.03;5085761;28;20055;-55
2021/08/08 03:56:59;;;;;;;3.67;1.70;;;;;;;32.86;21.15;94525.53;5074860;28;20048;-56
2021/08/08 03:59:27;;;;;;;5.07;1.77;;;;;;;32.84;21.62;94530.63;5087576;28;20045;-41
2021/08/08 04:01:54;;;;;;;3.72;1.70;;;;;;;32.42;21.74;94533.13;5074615;28;20063;-40
2021/08/08 04:04:21;;;;;;;2.35;1.55;;;;;;;32.90;21.46;94528.91;5093059;28;20472;-40
2021/08/08 04:06:48;;;;;;;4.38;1.55;;;;;;;32.68;21.81;94538.72;5078930;28;20048;-60
2021/08/08 04:09:15;;;;;;;2.75;1.70;;;;;;;33.03;21.62;94543.25;5087580;28;20051;-56
2021/08/08 04:11:42;;;;;;;3.97;1.58;;;;;;;33.34;21.17;94551.00;5081839;28;20051;-65
2021/08/08 04:14:10;;;;;;;2.78;1.65;;;;;;;33.62;20.93;94550.22;5086818;28;20040;-65
2021/08/08 04:16:37;;;;;;;2.13;1.60;;;;;;;33.24;21.29;94546.59;5093740;28;20060;-62
2021/08/08 04:19:04;;;;;;;1.98;1.77;;;;;;;33.21;21.38;94550.91;5094281;28;20489;-57
2021/08/08 04:21:33;;;;;;;2.65;2.03;;;;;;;34.02;20.55;94558.00;5093229;28;20048;-56
2021/08/08 04:24:00;;;;;;;2.95;1.88;;;;;;;35.49;18.99;94552.94;5087790;28;20079;-58
2021/08/08 04:26:28;;;;;;;3.50;1.80;;;;;;;35.89;18.80;94557.75;5075034;28;20048;-57
2021/08/08 04:28:55;;;;;;;3.78;2.13;;;;;;;36.36;18.37;94556.78;5075393;28;20063;-62
2021/08/08 04:31:22;;;;;;;4.00;2.13;;;;;;;35.65;19.02;94562.09;5073659;28;20076;-63
2021/08/08 04:33:49;;;;;;;3.60;1.77;;;;;;;35.34;19.58;94557.34;5083508;28;20071;-62
2021/08/08 04:36:17;;;;;;;2.55;1.70;;;;;;;34.73;20.18;94560.53;5073693;28;20055;-62
2021/08/08 04:38:44;;;;;;;3.47;1.90;;;;;;;34.65;20.44;94557.28;5075117;28;20048;-59
2021/08/08 04:41:12;;;;;;;3.28;1.98;;;;;;;34.37;20.32;94552.75;5074306;28;20048;-63
2021/08/08 04:43:39;;;;;;;3.00;1.65;;;;;;;34.97;19.66;94550.84;5074335;28;20044;-59
2021/08/08 04:46:07;;;;;;;3.40;1.50;;;;;;;34.60;19.86;94552.38;5074725;28;20051;-63
2021/08/08 04:48:34;;;;;;;2.53;1.83;;;;;;;35.20;18.93;94552.41;5072418;28;20052;-60
2021/08/08 04:51:02;;;;;;;3.03;2.03;;;;;;;35.11;19.01;94555.78;5074718;28;20331;-62
2021/08/08 04:53:29;;;;;;;2.55;1.75;;;;;;;35.19;18.89;94556.31;5074420;28;20359;-63
2021/08/08 04:55:57;;;;;;;1.98;1.50;;;;;;;35.29;19.08;94555.16;5082407;28;20051;-63
2021/08/08 04:58:24;;;;;;;4.40;1.58;;;;;;;35.08;19.09;94553.19;5094214;28;20054;-62
2021/08/08 05:00:51;;;;;;;2.15;1.50;;;;;;;35.35;18.73;94553.44;5094186;28;20339;-58
2021/08/08 05:03:18;;;;;;;3.28;1.67;;;;;;;35.36;18.93;94556.91;5094336;28;20040;-62
2021/08/08 05:05:45;;;;;;;2.55;1.50;;;;;;;35.46;18.42;94559.28;5094568;28;20048;-62
2021/08/08 05:08:12;;;;;;;1.70;1.45;;;;;;;35.65;18.48;94559.38;5074509;28;20036;-55
2021/08/08 05:10:39;;;;;;;2.40;1.50;;;;;;;35.54;18.68;94563.25;5074688;28;20044;-63
2021/08/08 05:13:06;;;;;;;2.75;1.50;;;;;;;35.37;18.90;94561.91;5074394;28;20048;-62
2021/08/08 05:15:33;;;;;;;2.25;1.58;;;;;;;36.21;17.94;94566.69;5074401;28;20041;-61
2021/08/08 05:18:01;;;;;;;2.13;1.55;;;;;;;35.94;18.35;94565.34;5072188;28;20041;-61
2021/08/08 05:20:28;;;;;;;3.53;1.67;;;;;;;36.08;18.61;94561.31;5073986;28;20059;-60
2021/08/08 05:22:57;;;;;;;2.30;1.73;;;;;;;36.17;18.30;94574.97;5093508;28;20401;-62
2021/08/08 05:25:24;;;;;;;3.65;1.98;;;;;;;36.40;17.64;94573.72;5090374;28;20056;-62
2021/08/08 05:27:51;;;;;;;4.47;2.00;;;;;;;36.33;18.24;94571.28;5072694;28;20378;-62
2021/08/08 05:30:19;;;;;;;2.72;1.90;;;;;;;36.40;18.42;94571.00;5072311;28;20051;-64
2021/08/08 05:32:46;;;;;;;3.10;1.80;;;;;;;36.48;18.50;94574.97;5073577;28;20040;-63
2021/08/08 05:35:13;;;;;;;2.45;2.10;;;;;;;36.65;18.49;94568.06;5073824;28;20040;-63
2021/08/08 05:37:41;;;;;;;3.85;1.85;;;;;;;37.15;17.43;94571.50;5073328;28;20075;-62
2021/08/08 05:40:09;;;;;;;2.20;1.75;;;;;;;36.87;17.49;94572.69;5073670;28;20465;-61
2021/08/08 05:42:49;;;;;;;2.38;1.60;;;;;;;37.05;17.59;94578.16;5073014;28;20052;-60
2021/08/08 05:45:20;;;;;;;4.07;2.13;;;;;;;36.76;17.63;94573.09;5073130;28;20036;-62
2021/08/08 05:47:47;;;;;;;2.72;1.85;;;;;;;36.75;17.37;94577.03;5073258;28;20052;-61
2021/08/08 05:50:15;;;;;;;2.38;1.35;;;;;;;37.09;17.24;94584.22;5090003;28;20051;-62
2021/08/08 05:52:47;;;;;;;2.63;1.80;;;;;;;37.20;16.92;94579.06;5093556;28;20048;-61
2021/08/08 05:55:15;;;;;;;3.20;1.80;;;;;;;37.70;16.53;94587.88;5091730;28;20040;-65
2021/08/08 05:57:42;;;;;;;3.75;1.85;;;;;;;37.93;16.22;94583.78;5089673;28;20450;-62
2021/08/08 06:00:11;;;;;;;9.02;2.38;;;;;;;37.81;16.56;94588.22;5076306;28;20044;-59
2021/08/08 06:02:42;;;;;;;4.80;1.88;;;;;;;37.91;16.22;94586.97;5093798;28;20048;-63
2021/08/08 06:05:11;;;;;;;3.60;2.20;;;;;;;37.86;16.65;94584.88;5093247;28;20055;-59
2021/08/08 06:07:39;;;;;;;2.60;1.90;;;;;;;38.11;16.68;94588.44;5093320;28;20044;-62
2021/08/08 06:10:07;;;;;;;2.55;1.77;;;;;;;38.10;15.83;94586.94;5093233;28;20496;-63
2021/08/08 06:12:35;;;;;;;3.28;1.92;;;;;;;38.69;16.08;94587.34;5092646;28;20382;-64
2021/08/08 06:15:02;;;;;;;2.30;1.77;;;;;;;39.02;15.93;94582.59;5090200;28;20052;-64
2021/08/08 06:17:33;;;;;;;2.47;1.60;;;;;;;39.75;14.88;94592.25;5074000;28;20052;-63
2021/08/08 06:20:00;;;;;;;6.22;1.85;;;;;;;40.11;14.84;94585.72;5072880;28;20045;-65
2021/08/08 06:22:31;;;;;;;2.97;1.65;;;;;;;40.31;14.60;94588.50;5072356;28;20056;-64
2021/08/08 06:24:58;;;;;;;4.38;1.92;;;;;;;40.29;14.69;94585.50;5075706;28;20056;-58
2021/08/08 06:27:25;;;;;;;4.10;1.80;;;;;;;39.80;14.88;94580.66;5076504;28;20055;-62
2021/08/08 06:29:52;;;;;;;2.67;1.70;;;;;;;39.93;14.57;94583.13;5089943;28;20044;-60
2021/08/08 06:32:19;;;;;;;1.95;1.60;;;;;;;40.09;14.48;94587.41;5097257;28;20044;-63
2021/08/08 06:34:46;;;;;;;2.90;1.70;;;;;;;40.61;14.06;94589.25;5097767;28;20047;-78
2021/08/08 06:37:14;;;;;;;3.83;2.13;;;;;;;40.88;14.01;94588.16;5070164;28;20370;-81
2021/08/08 06:39:41;;;;;;;2.42;1.50;;;;;;;40.79;14.02;94588.25;5076490;28;20048;-79
2021/08/08 06:42:08;;;;;;;6.05;1.90;;;;;;;40.44;14.48;94593.72;5076343;28;20443;-77
2021/08/08 06:44:41;;;;;;;3.50;2.05;;;;;;;39.88;14.97;94589.28;5076586;28;20044;-78
2021/08/08 06:47:09;;;;;;;3.63;2.00;;;;;;;40.56;14.24;94594.63;5088857;28;20044;-77
2021/08/08 06:49:36;;;;;;;2.83;1.98;;;;;;;40.63;14.10;94597.00;5077114;28;20056;-77
2021/08/08 06:52:04;;;;;;;1.92;1.60;;;;;;;40.24;14.22;94591.63;5078143;28;20063;-77
2021/08/08 06:54:31;;;;;;;2.22;1.80;;;;;;;40.18;14.45;94588.06;5076222;28;20049;-77
2021/08/08 06:56:58;;;;;;;2.58;1.85;;;;;;;40.29;14.48;94582.75;5079237;28;20041;-76
2021/08/08 06:59:30;;;;;;;4.38;2.00;;;;;;;40.59;14.32;94585.47;5075759;28;20131;-77
2021/08/08 07:01:58;;;;;;;3.38;1.70;;;;;;;40.59;14.05;94588.19;5075872;28;20051;-78
2021/08/08 07:04:25;;;;;;;2.97;1.90;;;;;;;40.54;14.14;94588.88;5075149;28;20052;-78
2021/08/08 07:06:52;;;;;;;3.55;1.58;;;;;;;40.85;13.83;94591.09;5077261;28;20048;-77
2021/08/08 07:09:19;;;;;;;2.00;1.52;;;;;;;41.10;13.89;94589.66;5075817;28;20048;-78
2021/08/08 07:11:47;;;;;;;3.55;1.90;;;;;;;40.89;13.94;94592.41;5075980;28;20044;-76
2021/08/08 07:14:31;;;;;;;3.65;1.90;;;;;;;41.36;13.67;94585.03;5076053;28;20053;-78
2021/08/08 07:16:58;;;;;;;3.28;2.00;;;;;;;41.25;13.89;94591.16;5076935;28;20051;-76
2021/08/08 07:19:25;;;;;;;2.17;1.77;;;;;;;41.44;13.43;94586.13;5075567;28;20048;-77
2021/08/08 07:21:53;;;;;;;2.13;1.88;;;;;;;41.46;13.01;94591.13;5074954;28;20049;-76
2021/08/08 07:24:21;;;;;;;3.17;1.70;;;;;;;41.34;13.13;94590.25;5074251;28;20057;-78
2021/08/08 07:26:48;;;;;;;3.95;1.70;;;;;;;41.35;13.55;94589.00;5075850;28;20051;-76
2021/08/08 07:29:15;;;;;;;3.05;1.92;;;;;;;41.73;13.43;94589.94;5080770;28;20051;-76
2021/08/08 07:31:43;;;;;;;4.57;1.80;;;;;;;41.85;13.08;94580.56;5095140;28;20047;-78
2021/08/08 07:34:11;;;;;;;2.28;1.63;;;;;;;41.79;12.81;94582.53;5075365;28;20047;-78
2021/08/08 07:36:38;;;;;;;2.28;1.92;;;;;;;41.94;12.83;94583.16;5091331;28;20045;-78
2021/08/08 07:39:05;;;;;;;2.35;1.48;;;;;;;42.02;12.90;94583.47;5075039;28;20049;-77
2021/08/08 07:41:33;;;;;;;3.53;1.80;;;;;;;42.14;12.53;94580.34;5075148;28;20075;-78
2021/08/08 07:44:00;;;;;;;3.67;1.60;;;;;;;42.67;12.92;94581.75;5075597;28;20037;-77
2021/08/08 07:46:27;;;;;;;6.85;1.60;;;;;;;42.69;12.53;94573.06;5077919;28;20055;-77
2021/08/08 07:48:54;;;;;;;3.50;1.90;;;;;;;42.28;12.85;94573.25;5077820;28;20357;-77
2021/08/08 07:51:21;;;;;;;2.55;1.70;;;;;;;42.28;12.83;94572.50;5089630;28;20049;-77
2021/08/08 07:53:48;;;;;;;2.58;2.03;;;;;;;42.09;12.37;94578.31;5076038;28;20052;-76
2021/08/08 07:56:16;;;;;;;2.40;1.65;;;;;;;42.61;12.04;94577.47;5076151;28;20044;-77
2021/08/08 07:58:44;;;;;;;3.40;1.80;;;;;;;42.75;12.51;94577.34;5073908;28;20047;-78
2021/08/08 08:01:13;;;;;;;2.17;1.80;;;;;;;42.77;12.23;94574.84;5091631;28;20071;-79
2021/08/08 08:03:40;;;;;;;3.00;1.92;;;;;;;42.44;12.53;94577.38;5095165;28;20763;-79
2021/08/08 08:06:07;;;;;;;2.08;1.63;;;;;;;42.97;12.55;94576.72;5095399;28;20450;-77
2021/08/08 08:08:34;;;;;;;3.65;1.70;;;;;;;43.22;12.00;94583.34;5094853;28;20446;-80
2021/08/08 08:11:01;;;;;;;3.63;1.73;;;;;;;43.08;12.47;94587.78;5094578;28;20046;-77
2021/08/08 08:13:29;;;;;;;4.43;1.70;;;;;;;43.17;12.31;94578.56;5095009;28;20177;-78
2021/08/08 08:15:57;;;;;;;2.78;1.92;;;;;;;43.34;11.95;94573.16;5092596;28;20052;-77
2021/08/08 08:18:24;;;;;;;2.85;1.83;;;;;;;42.98;12.02;94570.00;5090348;28;20119;-77
2021/08/08 08:20:52;;;;;;;2.92;1.90;;;;;;;43.30;12.51;94573.38;5076463;28;20041;-76
2021/08/08 08:23:20;;;;;;;3.17;2.33;;;;;;;43.45;12.26;94580.66;5075279;28;20059;-77
2021/08/08 08:25:48;;;;;;;4.30;2.03;;;;;;;43.15;12.28;94575.53;5074439;28;20498;-78
2021/08/08 08:28:15;;;;;;;3.28;1.80;;;;;;;42.95;12.67;94567.47;5078363;28;20048;-78
2021/08/08 08:30:42;;;;;;;3.38;1.80;;;;;;;42.88;12.44;94565.16;5093381;28;20044;-77
2021/08/08 08:33:10;;;;;;;4.43;1.92;;;;;;;43.07;12.31;94563.53;5094819;28;20040;-77
2021/08/08 08:35:37;;;;;;;4.18;2.05;;;;;;;43.31;11.98;94568.66;5095320;28;20051;-79
2021/08/08 08:38:05;;;;;;;5.60;2.55;;;;;;;43.41;11.87;94571.91;5095636;28;20449;-78
2021/08/08 08:40:36;;;;;;;2.78;1.80;;;;;;;43.78;11.49;94580.81;5079073;28;20048;-78
2021/08/08 08:43:07;;;;;;;3.40;1.60;;;;;;;43.29;11.95;94574.63;5092684;28;20047;-77
2021/08/08 08:45:41;;;;;;;2.08;1.88;;;;;;;43.36;11.72;94574.16;5094030;28;20055;-78
2021/08/08 08:48:10;;;;;;;2.30;1.90;;;;;;;43.21;12.13;94568.09;5094058;28;20052;-78
2021/08/08 08:50:38;;;;;;;2.55;1.90;;;;;;;43.15;12.01;94559.03;5095777;28;20040;-77
2021/08/08 08:53:07;;;;;;;2.22;1.90;;;;;;;43.31;12.14;94566.66;5059887;28;20052;-77
2021/08/08 08:55:34;;;;;;;4.30;2.10;;;;;;;43.20;12.07;94557.56;5074050;28;20044;-79
2021/08/08 08:58:01;;;;;;;3.40;2.20;;;;;;;43.75;11.89;94556.28;5074963;28;20052;-78
2021/08/08 09:00:29;;;;;;;2.30;2.10;;;;;;;43.63;12.01;94552.72;5059653;28;20048;-78
2021/08/08 09:02:56;;;;;;;5.88;2.60;;;;;;;43.55;11.92;94557.97;5074140;28;20055;-78
2021/08/08 09:05:26;;;;;;;4.53;2.30;;;;;;;43.79;11.66;94554.78;5072950;28;20044;-78
2021/08/08 09:07:55;;;;;;;2.85;2.17;;;;;;;44.15;11.44;94553.06;5073879;28;20048;-76
2021/08/08 09:10:24;;;;;;;3.03;2.22;;;;;;;43.71;12.06;94556.50;5085502;28;20043;-77
2021/08/08 09:12:58;;;;;;;3.63;2.20;;;;;;;43.95;11.70;94561.53;5099589;28;20051;-78
2021/08/08 09:15:37;;;;;;;2.42;1.98;;;;;;;43.56;11.89;94558.72;5094084;28;20040;-78
2021/08/08 09:18:17;;;;;;;2.35;2.15;;;;;;;43.95;11.36;94556.78;5094029;28;20040;-77
2021/08/08 09:20:58;;;;;;;4.70;2.20;;;;;;;44.16;11.62;94553.81;5090193;28;20048;-81
2021/08/08 09:23:34;;;;;;;2.40;2.20;;;;;;;44.08;11.57;94550.81;5059929;28;20051;-80
2021/08/08 09:26:01;;;;;;;4.57;2.40;;;;;;;43.80;11.72;94550.78;5093097;28;20055;-80
2021/08/08 09:28:32;;;;;;;3.30;2.17;;;;;;;43.82;11.65;94553.78;5090196;28;20048;-80
2021/08/08 09:31:00;;;;;;;2.90;2.00;;;;;;;44.32;11.34;94560.56;5074436;28;20438;-80
2021/08/08 09:33:28;;;;;;;5.82;2.55;;;;;;;44.38;11.19;94551.03;5075053;28;20066;-77
2021/08/08 09:35:56;;;;;;;4.70;2.10;;;;;;;44.05;11.42;94553.78;5074542;28;20037;-80
2021/08/08 09:38:23;;;;;;;2.45;1.90;;;;;;;44.29;11.27;94552.06;5074401;28;20059;-79
2021/08/08 09:41:01;;;;;;;3.03;2.40;;;;;;;44.26;10.90;94553.06;5073941;28;20060;-79
2021/08/08 09:43:29;;;;;;;2.67;2.20;;;;;;;44.32;11.04;94555.81;5074491;28;20070;-80
2021/08/08 09:45:56;;;;;;;3.20;2.45;;;;;;;44.13;10.84;94543.81;5085891;28;20044;-78
2021/08/08 09:48:38;;;;;;;4.22;1.98;;;;;;;43.79;11.15;94543.00;5094237;28;20044;-79
2021/08/08 09:51:06;;;;;;;4.60;2.22;;;;;;;44.38;10.74;94540.03;5093865;28;20040;-79
2021/08/08 09:53:34;;;;;;;3.55;2.28;;;;;;;43.97;11.21;94542.50;5094673;28;20056;-81
2021/08/08 09:56:01;;;;;;;2.40;2.10;;;;;;;44.44;10.94;94545.53;5095802;28;20036;-80
2021/08/08 09:58:39;;;;;;;6.85;3.47;;;;;;;44.57;10.45;94546.53;5093857;28;20055;-81
2021/08/08 10:01:06;;;;;;;5.22;2.40;;;;;;;44.31;11.34;94542.53;5098746;28;20051;-81
2021/08/08 10:03:34;;;;;;;2.83;2.10;;;;;;;43.93;11.12;94537.25;5098434;28;20054;-82
2021/08/08 10:06:03;;;;;;;6.10;2.53;;;;;;;44.53;11.00;94537.78;5098163;28;20036;-78
2021/08/08 10:08:31;;;;;;;4.13;2.60;;;;;;;44.79;11.12;94539.47;5083144;28;20055;-80
2021/08/08 10:10:58;;;;;;;3.10;2.63;;;;;;;44.78;10.98;94540.72;5076857;28;20421;-79
2021/08/08 10:13:52;;;;;;;3.75;2.40;;;;;;;44.47;11.02;94531.50;5077447;28;20049;-80
2021/08/08 10:16:20;;;;;;;3.08;2.42;;;;;;;44.76;10.79;94526.69;5092547;28;20335;-80
2021/08/08 10:18:57;;;;;;;3.83;2.40;;;;;;;44.57;10.84;94532.75;5094599;28;20041;-81
2021/08/08 10:21:24;;;;;;;5.90;2.60;;;;;;;44.43;10.85;94527.50;5086788;28;20113;-80
2021/08/08 10:23:53;;;;;;;3.83;2.25;;;;;;;44.08;11.04;94526.03;5084757;28;20048;-81
2021/08/08 10:26:21;;;;;;;2.83;2.15;;;;;;;44.38;10.58;94531.00;5076510;28;20048;-81
2021/08/08 10:28:49;;;;;;;5.32;2.00;;;;;;;44.38;10.76;94529.00;5077224;28;20048;-79
2021/08/08 10:31:19;;;;;;;4.13;2.38;;;;;;;44.81;10.56;94528.69;5075127;28;20056;-80
2021/08/08 10:33:48;;;;;;;4.30;2.10;;;;;;;44.34;10.27;94525.75;5077277;28;20047;-81
2021/08/08 10:36:27;;;;;;;2.75;2.25;;;;;;;44.52;10.41;94530.78;5090988;28;20040;-81
2021/08/08 10:39:10;;;;;;;2.95;1.90;;;;;;;44.48;10.27;94518.47;5100309;28;20048;-80
2021/08/08 10:41:38;;;;;;;3.33;2.30;;;;;;;44.21;10.45;94520.75;5101068;28;20044;-82
2021/08/08 10:44:10;;;;;;;5.40;2.42;;;;;;;44.41;10.55;94519.72;5097862;28;20051;-81
2021/08/08 10:47:03;;;;;;;4.07;2.20;;;;;;;45.13;10.36;94516.03;5097305;28;20044;-81
2021/08/08 10:49:33;;;;;;;4.13;2.47;;;;;;;44.71;11.10;94513.66;5072514;28;20048;-81
2021/08/08 10:52:04;;;;;;;5.40;3.20;;;;;;;44.80;10.55;94516.16;5091366;28;20062;-79
2021/08/08 10:55:00;;;;;;;3.58;2.58;;;;;;;45.11;10.31;94513.06;5097466;28;20063;-80
2021/08/08 10:57:27;;;;;;;5.82;2.47;;;;;;;44.74;10.52;94512.66;5060670;28;20041;-81
2021/08/08 10:59:54;;;;;;;3.15;2.22;;;;;;;44.78;10.62;94513.16;5080367;28;20044;-81
2021/08/08 11:02:27;;;;;;;3.78;2.10;;;;;;;44.85;10.46;94505.13;5096297;28;20044;-77
2021/08/08 11:04:56;;;;;;;3.13;2.38;;;;;;;44.62;10.64;94508.44;5096984;28;20051;-80
2021/08/08 11:07:27;;;;;;;4.82;2.50;;;;;;;44.55;10.79;94502.19;5097219;28;20044;-80
2021/08/08 11:09:55;;;;;;;3.30;2.47;;;;;;;44.26;10.93;94508.25;5079051;28;20126;-80
2021/08/08 11:12:40;;;;;;;5.30;2.70;;;;;;;44.52;10.67;94508.72;5076758;28;20052;-80
2021/08/08 11:15:09;;;;;;;4.43;2.67;;;;;;;44.26;10.79;94494.47;5076922;28;20059;-79
2021/08/08 11:17:36;;;;;;;4.88;3.00;;;;;;;44.42;10.57;94509.47;5076857;28;20056;-79
2021/08/08 11:20:05;;;;;;;4.13;2.40;;;;;;;44.54;10.53;94489.69;5076857;28;20045;-79
2021/08/08 11:22:32;;;;;;;3.13;2.40;;;;;;;44.63;10.28;94490.66;5081931;28;20052;-79
2021/08/08 11:25:05;;;;;;;3.22;2.15;;;;;;;44.24;10.28;94488.69;5077123;28;20052;-80
2021/08/08 11:27:40;;;;;;;3.83;2.28;;;;;;;44.46;10.53;94483.16;5077001;28;20044;-79
2021/08/08 11:30:10;;;;;;;4.28;2.30;;;;;;;44.14;10.83;94484.72;5075138;28;20383;-78
2021/08/08 11:32:38;;;;;;;2.78;1.98;;;;;;;44.53;10.27;94490.94;5076312;28;20477;-79
2021/08/08 11:35:20;;;;;;;3.85;2.65;;;;;;;44.41;10.63;94491.44;5076329;28;20048;-80
2021/08/08 11:37:49;;;;;;;5.38;3.38;;;;;;;44.16;10.75;94482.22;5075935;28;20067;-79
2021/08/08 11:40:19;;;;;;;3.90;2.28;;;;;;;44.64;10.22;94486.63;5075773;28;20045;-79
2021/08/08 11:42:46;;;;;;;2.80;2.50;;;;;;;44.48;10.15;94477.91;5076245;28;20079;-79